createdAt,value
2018-02-03T00:00:06.089Z,14.60
2018-02-03T00:02:35.062Z,15.70
2018-02-03T00:05:02.937Z,13.75
2018-02-03T00:10:21.004Z,14.75
2018-02-03T00:12:48.794Z,14.57
2018-02-03T00:18:10.761Z,13.98
2018-02-03T00:20:38.686Z,14.02
2018-02-03T00:23:13.713Z,13.35
2018-02-03T00:25:42.677Z,15.05
2018-02-03T00:28:10.561Z,14.48
2018-02-03T00:30:39.422Z,14.77
2018-02-03T00:33:13.489Z,14.18
2018-02-03T00:35:42.875Z,13.05
2018-02-03T00:38:19.144Z,15.02
2018-02-03T00:40:47.109Z,13.10
2018-02-03T00:43:14.971Z,14.82
2018-02-03T00:45:42.860Z,15.68
2018-02-03T00:48:10.756Z,15.07
2018-02-03T00:50:38.555Z,15.70
2018-02-03T00:53:06.478Z,15.07
2018-02-03T00:55:34.420Z,16.05
2018-02-03T00:58:13.026Z,14.75
2018-02-03T01:00:40.886Z,20.08
2018-02-03T01:03:09.399Z,17.00
2018-02-03T01:05:37.263Z,18.40
2018-02-03T01:08:12.194Z,15.30
2018-02-03T01:10:43.101Z,16.17
2018-02-03T01:13:10.969Z,16.50
2018-02-03T01:15:42.265Z,15.30
2018-02-03T01:18:10.094Z,15.80
2018-02-03T01:26:27.800Z,15.30
2018-02-03T01:29:01.684Z,15.63
2018-02-03T01:31:29.589Z,16.90
2018-02-03T01:33:57.428Z,17.73
2018-02-03T01:36:25.297Z,16.27
2018-02-03T01:38:53.148Z,16.27
2018-02-03T01:41:21.027Z,14.90
2018-02-03T01:43:48.901Z,14.50
2018-02-03T01:46:16.751Z,14.05
2018-02-03T01:48:44.640Z,15.27
2018-02-03T01:51:12.593Z,14.95
2018-02-03T01:53:40.468Z,15.35
2018-02-03T01:56:08.329Z,14.65
2018-02-03T01:58:36.152Z,16.92
2018-02-03T02:01:03.980Z,15.65
2018-02-03T02:03:31.832Z,15.65
2018-02-03T02:05:59.675Z,16.37
2018-02-03T02:08:27.500Z,15.20
2018-02-03T02:10:55.344Z,15.02
2018-02-03T02:13:23.175Z,14.43
2018-02-03T02:15:51.060Z,14.07
2018-02-03T02:18:18.892Z,16.23
2018-02-03T02:20:46.748Z,14.93
2018-02-03T02:23:14.578Z,15.00
2018-02-03T02:25:42.444Z,15.65
2018-02-03T02:28:10.268Z,16.90
2018-02-03T02:30:38.131Z,15.85
2018-02-03T02:33:06.068Z,16.48
2018-02-03T02:35:33.901Z,15.35
2018-02-03T02:38:07.823Z,15.05
2018-02-03T02:40:35.684Z,15.88
2018-02-03T02:43:03.590Z,16.67
2018-02-03T02:45:31.424Z,16.08
2018-02-03T02:48:05.378Z,14.95
2018-02-03T02:50:33.779Z,16.23
2018-02-03T02:53:02.307Z,16.65
2018-02-03T02:55:30.591Z,15.30
2018-02-03T02:57:58.682Z,16.40
2018-02-03T03:00:26.524Z,16.75
2018-02-03T03:02:54.356Z,17.65
2018-02-03T03:05:22.172Z,15.57
2018-02-03T03:07:50.005Z,16.50
2018-02-03T03:10:17.816Z,16.00
2018-02-03T03:12:45.666Z,18.77
2018-02-03T03:15:13.517Z,17.00
2018-02-03T03:17:41.366Z,15.18
2018-02-03T03:20:09.192Z,15.88
2018-02-03T03:22:37.020Z,16.35
2018-02-03T03:25:04.874Z,14.85
2018-02-03T03:27:32.717Z,17.27
2018-02-03T03:30:00.536Z,14.68
2018-02-03T03:32:28.396Z,17.83
2018-02-03T03:34:56.250Z,15.57
2018-02-03T03:37:24.074Z,17.17
2018-02-03T03:39:51.907Z,15.65
2018-02-03T03:42:19.726Z,17.33
2018-02-03T03:44:47.550Z,15.63
2018-02-03T03:47:15.420Z,16.80
2018-02-03T03:49:43.261Z,17.05
2018-02-03T03:52:11.085Z,16.33
2018-02-03T03:54:38.895Z,16.15
2018-02-03T03:57:06.720Z,15.95
2018-02-03T03:59:34.531Z,15.35
2018-02-03T04:02:02.394Z,18.37
2018-02-03T04:04:30.255Z,17.05
2018-02-03T04:06:58.101Z,20.75
2018-02-03T04:09:25.935Z,18.37
2018-02-03T04:11:53.753Z,19.37
2018-02-03T04:14:21.580Z,19.52
2018-02-03T04:16:49.401Z,20.62
2018-02-03T04:19:17.259Z,20.35
2018-02-03T04:21:45.099Z,19.27
2018-02-03T04:24:12.988Z,18.65
2018-02-03T04:26:40.898Z,19.75
2018-02-03T04:29:08.722Z,20.00
2018-02-03T04:31:36.540Z,20.75
2018-02-03T04:34:04.368Z,19.85
2018-02-03T04:36:32.186Z,21.02
2018-02-03T04:39:00.022Z,21.10
2018-02-03T04:41:27.871Z,20.20
2018-02-03T04:43:55.697Z,20.17
2018-02-03T04:46:23.552Z,19.23
2018-02-03T04:48:51.375Z,20.33
2018-02-03T04:51:19.200Z,22.10
2018-02-03T04:53:47.007Z,21.10
2018-02-03T04:56:14.856Z,18.98
2018-02-03T04:58:42.697Z,19.90
2018-02-03T05:01:10.548Z,20.98
2018-02-03T05:03:38.363Z,21.35
2018-02-03T05:06:06.180Z,20.80
2018-02-03T05:08:34.012Z,22.15
2018-02-03T05:11:01.855Z,21.85
2018-02-03T05:13:29.687Z,21.98
2018-02-03T05:15:57.520Z,21.15
2018-02-03T05:18:25.335Z,22.37
2018-02-03T05:20:53.166Z,23.10
2018-02-03T05:23:21.034Z,22.15
2018-02-03T05:25:48.878Z,23.45
2018-02-03T05:28:16.699Z,23.05
2018-02-03T05:30:44.553Z,23.33
2018-02-03T05:33:12.459Z,23.33
2018-02-03T05:35:40.310Z,23.77
2018-02-03T05:38:08.179Z,24.50
2018-02-03T05:40:36.040Z,23.02
2018-02-03T05:43:03.916Z,24.10
2018-02-03T05:45:32.576Z,26.20
2018-02-03T05:51:00.412Z,24.90
2018-02-03T06:05:01.268Z,25.17
2018-02-03T06:07:42.441Z,24.00
2018-02-03T06:16:13.130Z,25.33
2018-02-03T06:19:12.936Z,22.50
2018-02-03T06:27:43.337Z,22.45
2018-02-03T06:30:11.166Z,22.55
2018-02-03T06:32:38.983Z,23.98
2018-02-03T06:35:06.818Z,24.08
2018-02-03T06:37:34.634Z,24.23
2018-02-03T06:40:02.502Z,23.60
2018-02-03T06:42:30.324Z,23.23
2018-02-03T06:44:58.202Z,21.27
2018-02-03T06:47:26.021Z,20.50
2018-02-03T06:49:53.891Z,23.50
2018-02-03T06:52:21.711Z,20.45
2018-02-03T06:54:49.540Z,23.55
2018-02-03T06:57:17.355Z,22.58
2018-02-03T06:59:45.208Z,20.17
2018-02-03T07:02:13.111Z,21.73
2018-02-03T07:04:40.968Z,21.30
2018-02-03T07:07:08.809Z,22.10
2018-02-03T07:09:36.636Z,18.40
2018-02-03T07:12:04.467Z,20.85
2018-02-03T07:14:32.304Z,20.80
2018-02-03T07:17:00.183Z,18.52
2018-02-03T07:19:28.028Z,18.30
2018-02-03T07:21:55.850Z,20.45
2018-02-03T07:24:23.680Z,20.60
2018-02-03T07:26:51.500Z,18.12
2018-02-03T07:29:19.353Z,19.42
2018-02-03T07:31:47.192Z,19.58
2018-02-03T07:34:15.064Z,19.10
2018-02-03T07:36:42.973Z,20.98
2018-02-03T07:39:10.816Z,18.17
2018-02-03T07:41:38.627Z,18.15
2018-02-03T07:44:06.459Z,19.30
2018-02-03T07:46:34.290Z,18.75
2018-02-03T07:49:02.108Z,18.50
2018-02-03T07:51:29.944Z,19.45
2018-02-03T07:53:57.768Z,20.40
2018-02-03T07:56:25.611Z,20.42
2018-02-03T07:58:53.448Z,19.35
2018-02-03T08:01:21.264Z,18.67
2018-02-03T08:03:49.852Z,17.35
2018-02-03T08:06:17.680Z,20.20
2018-02-03T08:08:45.520Z,18.37
2018-02-03T08:11:13.365Z,20.40
2018-02-03T08:13:41.230Z,18.00
2018-02-03T08:16:09.078Z,19.10
2018-02-03T08:18:36.932Z,20.55
2018-02-03T08:21:04.759Z,20.80
2018-02-03T08:23:32.560Z,19.12
2018-02-03T08:26:00.371Z,18.23
2018-02-03T08:28:28.177Z,19.27
2018-02-03T08:30:56.118Z,18.98
2018-02-03T08:33:23.921Z,19.58
2018-02-03T08:35:51.778Z,20.27
2018-02-03T08:38:19.604Z,18.40
2018-02-03T08:40:47.447Z,19.40
2018-02-03T08:43:15.319Z,17.15
2018-02-03T08:45:43.187Z,18.02
2018-02-03T08:48:11.052Z,20.30
2018-02-03T08:50:38.944Z,19.87
2018-02-03T08:53:06.781Z,18.08
2018-02-03T08:55:34.690Z,20.10
2018-02-03T08:58:02.664Z,19.70
2018-02-03T09:00:30.584Z,18.35
2018-02-03T09:02:58.404Z,18.77
2018-02-03T09:05:26.280Z,16.42
2018-02-03T09:07:54.105Z,17.42
2018-02-03T09:10:21.936Z,17.70
2018-02-03T09:12:49.775Z,17.08
2018-02-03T09:15:17.600Z,15.70
2018-02-03T09:17:45.468Z,16.55
2018-02-03T09:20:13.364Z,16.60
2018-02-03T09:22:41.192Z,16.80
2018-02-03T09:25:09.021Z,15.60
2018-02-03T09:27:36.852Z,16.23
2018-02-03T09:30:12.333Z,18.15
2018-02-03T09:35:15.325Z,15.35
2018-02-03T09:37:43.323Z,18.40
2018-02-03T09:40:14.396Z,16.33
2018-02-03T09:42:42.297Z,15.80
2018-02-03T09:45:10.115Z,17.87
2018-02-03T09:47:37.944Z,16.25
2018-02-03T09:50:05.783Z,16.75
2018-02-03T09:52:33.599Z,16.40
2018-02-03T09:55:01.433Z,15.98
2018-02-03T09:57:32.654Z,14.10
2018-02-03T10:00:11.205Z,16.08
2018-02-03T10:50:05.401Z,14.02
2018-02-03T11:01:40.602Z,13.35
2018-02-03T11:10:25.410Z,14.05
2018-02-03T11:12:53.746Z,14.13
2018-02-03T11:18:13.787Z,11.88
2018-02-03T11:29:59.042Z,10.90
2018-02-03T11:32:33.762Z,11.50
2018-02-03T11:46:28.292Z,11.55
2018-02-03T11:48:57.677Z,10.68
2018-02-03T12:00:40.434Z,10.30
2018-02-03T12:15:30.877Z,9.90
2018-02-03T12:39:41.436Z,9.63
2018-02-03T14:39:27.305Z,13.62
2018-02-03T14:45:04.069Z,14.27
2018-02-03T14:47:33.515Z,12.27
2018-02-03T14:52:56.130Z,12.27
2018-02-03T14:55:24.001Z,12.15
2018-02-03T15:12:42.959Z,10.30
2018-02-03T15:15:10.804Z,10.68
2018-02-03T15:34:52.299Z,10.85
2018-02-03T15:40:14.830Z,11.00
2018-02-03T15:45:37.349Z,10.90
2018-02-03T15:48:07.775Z,10.75
2018-02-03T15:50:36.881Z,11.20
2018-02-03T15:53:05.225Z,10.77
2018-02-03T15:55:47.223Z,11.10
2018-02-03T16:01:11.118Z,11.32
2018-02-03T16:03:40.672Z,11.20
2018-02-03T16:12:12.962Z,11.43
2018-02-03T16:14:40.954Z,12.90
2018-02-03T16:17:08.840Z,11.75
2018-02-03T16:19:47.393Z,11.38
2018-02-03T16:22:15.243Z,11.73
2018-02-03T16:24:43.585Z,12.23
2018-02-03T16:30:09.316Z,11.77
2018-02-03T16:32:37.340Z,9.07
2018-02-03T16:35:05.217Z,9.32
2018-02-03T16:37:43.359Z,9.90
2018-02-03T16:40:11.158Z,10.77
2018-02-03T16:42:39.028Z,10.10
2018-02-03T16:45:06.907Z,9.95
2018-02-03T16:50:42.882Z,9.57
2018-02-03T16:53:10.711Z,9.63
2018-02-03T16:55:42.882Z,10.98
2018-02-03T16:58:10.836Z,7.22
2018-02-03T17:00:39.057Z,10.35
2018-02-03T17:06:13.291Z,9.68
2018-02-03T17:14:44.033Z,8.68
2018-02-03T17:20:20.905Z,8.85
2018-02-03T17:26:08.762Z,8.45
2018-02-03T17:28:39.393Z,9.20
2018-02-03T17:33:53.794Z,8.70
2018-02-03T17:48:17.625Z,9.38
2018-02-03T17:50:48.373Z,9.52
2018-02-03T18:02:13.505Z,10.73
2018-02-03T18:04:41.613Z,11.27
2018-02-03T18:07:09.505Z,9.98
2018-02-03T18:09:40.876Z,11.18
2018-02-03T18:17:58.835Z,10.10
2018-02-03T18:20:30.442Z,10.98
2018-02-03T18:23:13.928Z,10.35
2018-02-03T18:25:52.571Z,10.40
2018-02-03T19:29:50.130Z,13.80
2018-02-03T19:54:10.570Z,15.85
